Time;durP1;ratioP1;P1;durP2;ratioP2;P2;SDS_P1;SDS_P2;PMS_P1;PMS_P2;Temp;Humidity;BMP_temperature;BMP_pressure;BME280_temperature;BME280_humidity;BME280_pressure;Samples;Min_cycle;Max_cycle;Signal;HPM_P1;HPM_P2
2023/12/22 00:01:01;;;;;;;8.57;2.87;;;;;;;;;;5030097;28;20226;-76
2023/12/22 00:03:26;;;;;;;4.63;2.40;;;;;;;;;;5010736;28;20163;-76
2023/12/22 00:05:51;;;;;;;5.07;2.70;;;;;;;;;;5007164;28;20180;-76
2023/12/22 00:08:16;;;;;;;5.27;2.70;;;;;;;;;;5012142;28;20184;-76
2023/12/22 00:10:41;;;;;;;5.07;2.50;;;;;;;;;;5022567;28;20177;-76
2023/12/22 00:13:07;;;;;;;1.80;1.70;;;;;;;;;;5009517;28;20177;-76
2023/12/22 00:15:32;;;;;;;7.60;2.70;;;;;;;;;;5017135;28;20215;-76
2023/12/22 00:17:57;;;;;;;5.73;2.63;;;;;;;;;;5019543;28;20199;-76
2023/12/22 00:20:23;;;;;;;3.80;2.13;;;;;;;;;;5024108;28;20163;-76
2023/12/22 00:22:48;;;;;;;6.07;2.60;;;;;;;;;;5017950;28;20236;-76
2023/12/22 00:25:13;;;;;;;5.07;2.20;;;;;;;;;;5012845;28;20201;-76
2023/12/22 00:27:38;;;;;;;6.87;2.93;;;;;;;;;;5013580;28;20302;-76
2023/12/22 00:30:04;;;;;;;3.77;2.37;;;;;;;;;;5024131;28;20186;-77
2023/12/22 00:32:29;;;;;;;3.53;2.50;;;;;;;;;;5034528;28;20188;-76
2023/12/22 00:34:54;;;;;;;6.97;2.80;;;;;;;;;;5010324;28;20300;-75
2023/12/22 00:37:19;;;;;;;6.60;2.10;;;;;;;;;;5016050;28;20520;-76
2023/12/22 00:39:44;;;;;;;5.20;2.63;;;;;;;;;;5016136;28;20220;-76
2023/12/22 00:42:10;;;;;;;4.53;2.33;;;;;;;;;;5037230;28;20181;-75
2023/12/22 00:44:35;;;;;;;3.90;2.43;;;;;;;;;;5012767;28;20267;-76
2023/12/22 00:47:00;;;;;;;6.93;2.87;;;;;;;;;;5012315;28;20428;-76
2023/12/22 00:49:25;;;;;;;5.07;2.77;;;;;;;;;;5029815;28;20182;-76
2023/12/22 00:51:50;;;;;;;8.13;2.63;;;;;;;;;;5010890;28;20251;-75
2023/12/22 00:54:16;;;;;;;5.00;2.67;;;;;;;;;;5012734;28;20212;-76
2023/12/22 00:56:41;;;;;;;5.73;2.50;;;;;;;;;;5025004;28;20451;-76
2023/12/22 00:59:06;;;;;;;3.27;2.23;;;;;;;;;;5018122;28;20272;-77
2023/12/22 01:01:31;;;;;;;6.13;3.03;;;;;;;;;;5029949;28;20178;-76
2023/12/22 01:03:57;;;;;;;3.40;2.20;;;;;;;;;;5029385;28;20220;-76
2023/12/22 01:06:22;;;;;;;5.73;2.10;;;;;;;;;;5005799;28;20174;-76
2023/12/22 01:08:49;;;;;;;4.80;2.07;;;;;;;;;;5016995;28;20268;-76
2023/12/22 01:11:15;;;;;;;2.90;1.60;;;;;;;;;;5013404;28;20708;-76
2023/12/22 01:13:40;;;;;;;5.53;1.70;;;;;;;;;;5040327;28;20181;-76
2023/12/22 01:16:05;;;;;;;1.90;1.40;;;;;;;;;;5016725;28;20246;-76
2023/12/22 01:18:31;;;;;;;4.17;1.60;;;;;;;;;;5029338;28;20185;-76
2023/12/22 01:20:56;;;;;;;3.80;1.30;;;;;;;;;;5022309;28;20175;-76
2023/12/22 01:23:21;;;;;;;3.37;1.10;;;;;;;;;;5021456;28;20183;-76
2023/12/22 01:25:47;;;;;;;1.80;1.50;;;;;;;;;;5035202;28;20240;-76
2023/12/22 01:28:12;;;;;;;4.77;1.20;;;;;;;;;;5034437;28;20173;-77
2023/12/22 01:30:37;;;;;;;2.50;1.33;;;;;;;;;;5023653;28;20195;-76
2023/12/22 01:33:02;;;;;;;1.93;1.50;;;;;;;;;;5021842;28;20268;-75
2023/12/22 01:35:28;;;;;;;3.20;1.30;;;;;;;;;;5016587;28;20199;-76
2023/12/22 01:37:54;;;;;;;1.73;1.40;;;;;;;;;;5013363;28;20211;-75
2023/12/22 01:40:19;;;;;;;1.67;1.50;;;;;;;;;;5025840;28;20212;-76
2023/12/22 01:42:45;;;;;;;3.93;1.27;;;;;;;;;;5018569;28;20254;-76
2023/12/22 01:45:10;;;;;;;2.17;1.20;;;;;;;;;;5013352;28;20275;-76
2023/12/22 01:47:36;;;;;;;1.03;1.00;;;;;;;;;;5016788;28;20201;-76
2023/12/22 01:50:02;;;;;;;2.77;1.20;;;;;;;;;;5036586;28;20197;-77
2023/12/22 01:52:27;;;;;;;1.93;1.47;;;;;;;;;;5026392;28;20173;-77
2023/12/22 01:54:54;;;;;;;3.87;1.97;;;;;;;;;;5020170;28;20209;-77
2023/12/22 01:57:20;;;;;;;5.57;2.10;;;;;;;;;;5014019;28;20240;-77
2023/12/22 01:59:46;;;;;;;2.33;1.77;;;;;;;;;;5029006;28;20282;-76
2023/12/22 02:02:11;;;;;;;3.63;1.70;;;;;;;;;;5019833;28;20203;-76
2023/12/22 02:04:36;;;;;;;4.10;1.83;;;;;;;;;;5010263;28;20184;-77
2023/12/22 02:07:03;;;;;;;4.50;1.93;;;;;;;;;;5014530;28;20176;-77
2023/12/22 02:09:28;;;;;;;5.83;2.10;;;;;;;;;;5026215;28;20184;-77
2023/12/22 02:11:53;;;;;;;7.03;2.63;;;;;;;;;;5028932;28;20193;-76
2023/12/22 02:14:18;;;;;;;4.03;2.53;;;;;;;;;;5030433;28;20199;-77
2023/12/22 02:17:07;;;;;;;8.00;2.90;;;;;;;;;;5016420;28;20213;-77
2023/12/22 02:19:38;;;;;;;6.60;2.23;;;;;;;;;;5023306;28;20225;-77
2023/12/22 02:22:04;;;;;;;7.53;2.93;;;;;;;;;;5019579;28;20206;-77
2023/12/22 02:24:32;;;;;;;5.60;3.53;;;;;;;;;;5023064;28;20182;-77
2023/12/22 02:27:05;;;;;;;7.50;2.20;;;;;;;;;;5020046;28;20190;-76
2023/12/22 02:29:32;;;;;;;4.47;2.00;;;;;;;;;;5033349;28;20205;-77
2023/12/22 02:31:59;;;;;;;6.10;2.63;;;;;;;;;;5036946;28;20184;-77
2023/12/22 02:34:25;;;;;;;3.50;2.30;;;;;;;;;;5030218;28;20197;-77
2023/12/22 02:36:51;;;;;;;4.63;2.60;;;;;;;;;;5016997;28;20187;-77
2023/12/22 02:39:16;;;;;;;6.97;3.17;;;;;;;;;;5014760;28;20253;-77
2023/12/22 02:41:42;;;;;;;6.10;2.60;;;;;;;;;;5021959;28;20203;-77
2023/12/22 02:44:08;;;;;;;3.70;2.67;;;;;;;;;;5029584;28;20244;-78
2023/12/22 02:46:34;;;;;;;5.13;2.10;;;;;;;;;;5034218;28;20185;-77
2023/12/22 02:48:59;;;;;;;6.57;2.40;;;;;;;;;;5009802;28;20186;-77
2023/12/22 02:51:24;;;;;;;5.50;2.47;;;;;;;;;;5026052;28;20203;-77
2023/12/22 02:53:49;;;;;;;7.80;2.03;;;;;;;;;;5009894;28;20201;-77
2023/12/22 02:56:14;;;;;;;5.40;2.30;;;;;;;;;;5012322;28;20293;-77
2023/12/22 02:58:39;;;;;;;9.07;2.47;;;;;;;;;;5010938;28;20178;-77
2023/12/22 03:01:05;;;;;;;5.60;2.90;;;;;;;;;;5024167;28;20190;-78
2023/12/22 03:03:30;;;;;;;2.60;1.60;;;;;;;;;;5031193;28;20171;-77
2023/12/22 03:05:55;;;;;;;7.67;2.57;;;;;;;;;;5013375;28;20321;-76
2023/12/22 03:08:20;;;;;;;7.20;2.43;;;;;;;;;;5030609;28;20299;-77
2023/12/22 03:10:45;;;;;;;6.13;2.67;;;;;;;;;;5009859;28;20184;-77
2023/12/22 03:13:10;;;;;;;6.77;2.70;;;;;;;;;;5016504;28;20178;-77
2023/12/22 03:15:37;;;;;;;3.43;2.17;;;;;;;;;;5017153;28;20256;-78
2023/12/22 03:18:02;;;;;;;2.93;2.10;;;;;;;;;;5008919;28;20455;-77
2023/12/22 03:20:27;;;;;;;4.33;2.00;;;;;;;;;;5020076;28;20177;-77
2023/12/22 03:22:52;;;;;;;3.37;1.60;;;;;;;;;;5020338;28;20179;-77
2023/12/22 03:25:18;;;;;;;4.23;2.10;;;;;;;;;;5020912;28;20185;-77
2023/12/22 03:27:43;;;;;;;3.47;1.97;;;;;;;;;;5017436;28;20267;-77
2023/12/22 03:30:08;;;;;;;6.77;2.20;;;;;;;;;;5017033;28;20178;-76
2023/12/22 03:32:33;;;;;;;4.67;2.50;;;;;;;;;;5013511;28;20184;-77
2023/12/22 03:34:58;;;;;;;9.50;3.10;;;;;;;;;;5014329;28;20205;-77
2023/12/22 03:37:24;;;;;;;2.97;2.50;;;;;;;;;;5011585;28;20199;-77
2023/12/22 03:39:49;;;;;;;5.43;2.20;;;;;;;;;;5013953;28;20223;-77
2023/12/22 03:42:14;;;;;;;8.03;2.10;;;;;;;;;;5030397;28;20189;-77
2023/12/22 03:44:39;;;;;;;9.70;3.03;;;;;;;;;;5009785;28;20181;-76
2023/12/22 03:47:05;;;;;;;5.13;2.43;;;;;;;;;;5026945;28;20189;-77
2023/12/22 03:49:30;;;;;;;5.73;2.60;;;;;;;;;;5013862;28;20185;-77
2023/12/22 03:51:55;;;;;;;8.37;2.90;;;;;;;;;;5015883;28;20192;-77
2023/12/22 03:54:20;;;;;;;9.32;3.75;;;;;;;;;;5027863;28;21273;-77
2023/12/22 03:56:46;;;;;;;6.37;3.17;;;;;;;;;;5009915;28;20190;-77
2023/12/22 03:59:11;;;;;;;7.53;3.73;;;;;;;;;;5016847;28;20238;-77
2023/12/22 04:01:36;;;;;;;7.80;3.20;;;;;;;;;;5008880;28;20190;-78
2023/12/22 04:04:01;;;;;;;11.30;3.47;;;;;;;;;;5014324;28;20174;-77
2023/12/22 04:06:26;;;;;;;10.37;3.90;;;;;;;;;;5011330;28;20176;-77
2023/12/22 04:08:52;;;;;;;6.47;2.83;;;;;;;;;;5014228;28;20203;-77
2023/12/22 04:11:17;;;;;;;6.13;2.80;;;;;;;;;;5016340;28;20180;-78
2023/12/22 04:13:42;;;;;;;5.70;2.77;;;;;;;;;;5037144;28;20171;-77
2023/12/22 04:16:07;;;;;;;8.73;2.93;;;;;;;;;;5031507;28;20195;-78
2023/12/22 04:18:32;;;;;;;7.97;2.20;;;;;;;;;;5025201;28;20217;-78
2023/12/22 04:20:58;;;;;;;5.60;2.40;;;;;;;;;;5017350;28;20181;-77
2023/12/22 04:23:23;;;;;;;4.10;2.10;;;;;;;;;;5025250;28;20241;-77
2023/12/22 04:25:49;;;;;;;4.00;1.80;;;;;;;;;;5016895;28;20179;-77
2023/12/22 04:28:14;;;;;;;4.80;2.03;;;;;;;;;;5011325;28;20248;-77
2023/12/22 04:30:39;;;;;;;6.70;2.30;;;;;;;;;;5033206;28;20603;-78
2023/12/22 04:33:05;;;;;;;5.40;2.70;;;;;;;;;;5037139;28;20183;-77
2023/12/22 04:35:30;;;;;;;5.80;3.10;;;;;;;;;;5029784;28;20197;-78
2023/12/22 04:37:56;;;;;;;9.20;3.03;;;;;;;;;;5010136;28;20216;-80
2023/12/22 04:40:21;;;;;;;6.20;3.27;;;;;;;;;;5031894;28;20242;-77
2023/12/22 04:42:46;;;;;;;10.87;3.97;;;;;;;;;;5029237;28;20202;-77
2023/12/22 04:45:11;;;;;;;5.97;3.10;;;;;;;;;;5012748;28;20192;-77
2023/12/22 04:47:37;;;;;;;10.57;3.57;;;;;;;;;;5030154;28;20180;-77
2023/12/22 04:50:02;;;;;;;13.47;4.00;;;;;;;;;;5019681;28;20204;-77
2023/12/22 04:52:28;;;;;;;10.40;3.33;;;;;;;;;;5017191;28;20195;-78
2023/12/22 04:54:53;;;;;;;12.47;3.90;;;;;;;;;;5019119;28;20501;-78
2023/12/22 04:57:19;;;;;;;9.07;3.37;;;;;;;;;;5033279;28;20249;-77
2023/12/22 04:59:44;;;;;;;6.03;3.10;;;;;;;;;;5044486;28;20176;-77
2023/12/22 05:02:09;;;;;;;7.77;3.43;;;;;;;;;;5017115;28;20178;-77
2023/12/22 05:04:34;;;;;;;11.73;4.10;;;;;;;;;;5019053;28;20223;-77
2023/12/22 05:07:00;;;;;;;6.53;3.23;;;;;;;;;;5015055;28;20210;-77
2023/12/22 05:09:27;;;;;;;6.33;2.90;;;;;;;;;;5016948;28;20182;-77
2023/12/22 05:11:52;;;;;;;12.37;3.83;;;;;;;;;;5011838;28;20181;-77
2023/12/22 05:14:17;;;;;;;9.17;4.33;;;;;;;;;;5023644;28;20181;-77
2023/12/22 05:16:42;;;;;;;10.10;2.80;;;;;;;;;;5027636;28;20271;-78
2023/12/22 05:19:07;;;;;;;10.43;4.70;;;;;;;;;;5020567;28;20178;-78
2023/12/22 05:21:33;;;;;;;12.20;4.30;;;;;;;;;;5011030;28;20182;-77
2023/12/22 05:23:58;;;;;;;9.17;3.80;;;;;;;;;;5024325;28;20192;-77
2023/12/22 05:26:24;;;;;;;12.43;4.43;;;;;;;;;;5017649;28;20209;-77
2023/12/22 05:28:49;;;;;;;11.60;3.90;;;;;;;;;;5036813;28;20188;-77
2023/12/22 05:31:14;;;;;;;6.97;3.53;;;;;;;;;;5012331;28;20185;-77
2023/12/22 05:33:40;;;;;;;7.77;3.70;;;;;;;;;;5031155;28;20170;-77
2023/12/22 05:36:05;;;;;;;6.93;2.73;;;;;;;;;;5014264;28;20196;-77
2023/12/22 05:38:30;;;;;;;7.33;3.60;;;;;;;;;;5016185;28;20409;-78
2023/12/22 05:40:56;;;;;;;8.87;3.67;;;;;;;;;;5031950;28;20206;-78
2023/12/22 05:43:21;;;;;;;9.90;4.03;;;;;;;;;;5015725;28;20189;-78
2023/12/22 05:45:46;;;;;;;9.07;3.13;;;;;;;;;;5030252;28;20198;-77
2023/12/22 05:48:11;;;;;;;8.57;3.60;;;;;;;;;;5013393;28;20192;-77
2023/12/22 05:50:37;;;;;;;10.10;4.10;;;;;;;;;;5030890;28;20225;-77
2023/12/22 05:53:02;;;;;;;10.90;4.53;;;;;;;;;;5016431;28;20242;-78
2023/12/22 05:55:27;;;;;;;13.47;5.03;;;;;;;;;;5009600;28;20290;-77
2023/12/22 05:57:53;;;;;;;11.90;4.83;;;;;;;;;;5013970;28;20252;-76
2023/12/22 06:00:19;;;;;;;12.33;4.10;;;;;;;;;;5023355;28;20180;-77
2023/12/22 06:02:44;;;;;;;8.73;3.17;;;;;;;;;;5029469;28;20181;-77
2023/12/22 06:05:09;;;;;;;14.33;4.30;;;;;;;;;;5012944;28;20189;-77
2023/12/22 06:07:34;;;;;;;8.20;3.33;;;;;;;;;;5003204;28;20185;-78
2023/12/22 06:09:59;;;;;;;9.57;4.10;;;;;;;;;;5021359;28;20280;-77
2023/12/22 06:12:25;;;;;;;10.37;3.80;;;;;;;;;;5030663;28;20226;-78
2023/12/22 06:14:50;;;;;;;9.47;4.13;;;;;;;;;;5019878;28;20207;-78
2023/12/22 06:17:15;;;;;;;9.83;3.23;;;;;;;;;;5022390;28;20186;-77
2023/12/22 06:19:40;;;;;;;11.77;3.63;;;;;;;;;;5020537;28;20182;-77
2023/12/22 06:22:05;;;;;;;6.13;3.50;;;;;;;;;;5017369;28;20177;-78
2023/12/22 06:24:31;;;;;;;7.17;3.00;;;;;;;;;;5037800;28;20178;-77
2023/12/22 06:26:56;;;;;;;9.10;3.70;;;;;;;;;;5031848;28;20207;-77
2023/12/22 06:29:21;;;;;;;7.90;3.40;;;;;;;;;;5012325;28;20185;-77
2023/12/22 06:31:50;;;;;;;6.83;2.67;;;;;;;;;;5034045;28;20211;-77
2023/12/22 06:34:15;;;;;;;10.60;3.60;;;;;;;;;;5010549;28;20208;-78
2023/12/22 06:36:41;;;;;;;10.67;3.67;;;;;;;;;;5021222;28;20236;-78
2023/12/22 06:39:06;;;;;;;5.93;2.70;;;;;;;;;;5014320;28;20302;-78
2023/12/22 06:41:32;;;;;;;8.43;3.63;;;;;;;;;;5029862;28;20202;-78
2023/12/22 06:43:59;;;;;;;6.83;3.90;;;;;;;;;;5014135;28;20276;-77
2023/12/22 06:46:28;;;;;;;12.50;3.97;;;;;;;;;;5029198;28;20175;-77
2023/12/22 06:48:54;;;;;;;11.63;4.30;;;;;;;;;;5026739;28;20190;-77
2023/12/22 06:51:21;;;;;;;14.77;3.97;;;;;;;;;;5015683;28;20183;-77
2023/12/22 06:53:50;;;;;;;9.83;3.87;;;;;;;;;;5026176;28;20241;-78
2023/12/22 06:56:19;;;;;;;8.07;3.00;;;;;;;;;;5013114;28;20491;-78
2023/12/22 06:58:47;;;;;;;7.43;2.80;;;;;;;;;;5021126;28;20181;-78
2023/12/22 07:01:12;;;;;;;10.83;4.07;;;;;;;;;;5030525;28;20184;-77
2023/12/22 07:03:38;;;;;;;13.60;4.23;;;;;;;;;;5010121;28;20173;-77
2023/12/22 07:06:03;;;;;;;11.40;4.00;;;;;;;;;;5011770;28;20193;-78
2023/12/22 07:08:29;;;;;;;10.97;3.73;;;;;;;;;;5028927;28;20281;-78
2023/12/22 07:10:54;;;;;;;6.60;3.13;;;;;;;;;;5013773;28;20232;-78
2023/12/22 07:13:19;;;;;;;11.67;4.37;;;;;;;;;;5014792;28;20185;-79
2023/12/22 07:15:44;;;;;;;16.30;4.07;;;;;;;;;;5014151;28;20203;-79
2023/12/22 07:18:10;;;;;;;9.10;3.93;;;;;;;;;;5021097;28;20203;-77
2023/12/22 07:20:35;;;;;;;6.47;2.83;;;;;;;;;;5015443;28;20256;-78
2023/12/22 07:23:00;;;;;;;10.47;4.67;;;;;;;;;;5037807;28;20270;-78
2023/12/22 07:25:25;;;;;;;12.13;6.07;;;;;;;;;;5022402;28;20177;-78
2023/12/22 07:27:51;;;;;;;13.03;6.57;;;;;;;;;;5011707;28;20194;-79
2023/12/22 07:30:16;;;;;;;11.17;4.03;;;;;;;;;;5017186;28;20174;-77
2023/12/22 07:32:43;;;;;;;8.93;4.30;;;;;;;;;;5012085;28;20194;-78
2023/12/22 07:35:09;;;;;;;9.87;4.77;;;;;;;;;;5024357;28;20211;-78
2023/12/22 07:37:35;;;;;;;8.63;4.90;;;;;;;;;;5025266;28;20206;-78
2023/12/22 07:40:00;;;;;;;11.37;5.53;;;;;;;;;;5005330;28;20230;-77
2023/12/22 07:42:25;;;;;;;7.53;3.93;;;;;;;;;;5028721;28;20173;-78
2023/12/22 07:44:50;;;;;;;12.77;4.70;;;;;;;;;;5033111;28;20269;-78
2023/12/22 07:47:16;;;;;;;8.23;4.37;;;;;;;;;;5029143;28;20185;-78
2023/12/22 07:49:41;;;;;;;15.93;5.07;;;;;;;;;;5009986;28;20176;-78
2023/12/22 07:52:06;;;;;;;12.57;5.27;;;;;;;;;;5011632;28;20478;-78
2023/12/22 07:54:32;;;;;;;13.73;5.90;;;;;;;;;;5011973;28;20198;-78
2023/12/22 07:56:57;;;;;;;15.10;4.90;;;;;;;;;;5028405;28;20177;-78
2023/12/22 07:59:22;;;;;;;17.87;4.47;;;;;;;;;;5009444;28;20181;-78
2023/12/22 08:01:47;;;;;;;12.80;5.13;;;;;;;;;;5011807;28;20212;-78
2023/12/22 08:04:13;;;;;;;17.07;5.57;;;;;;;;;;5009795;28;20190;-78
2023/12/22 08:06:38;;;;;;;13.00;5.67;;;;;;;;;;5010304;28;20176;-78
2023/12/22 08:09:03;;;;;;;15.53;5.80;;;;;;;;;;5031069;28;20210;-78
2023/12/22 08:11:28;;;;;;;12.17;5.60;;;;;;;;;;5012813;28;20184;-78
2023/12/22 08:13:54;;;;;;;14.60;4.90;;;;;;;;;;5042235;28;20250;-77
2023/12/22 08:16:19;;;;;;;12.13;4.60;;;;;;;;;;5031282;28;20198;-76
2023/12/22 08:18:44;;;;;;;13.60;4.80;;;;;;;;;;5023039;28;21480;-79
2023/12/22 08:21:09;;;;;;;15.63;5.17;;;;;;;;;;5041460;28;20180;-78
2023/12/22 08:23:35;;;;;;;16.50;5.07;;;;;;;;;;5027066;28;20217;-78
2023/12/22 08:26:00;;;;;;;19.87;4.80;;;;;;;;;;5026660;28;20480;-78
2023/12/22 08:28:25;;;;;;;12.23;4.63;;;;;;;;;;5035057;28;20185;-78
2023/12/22 08:30:52;;;;;;;7.33;4.27;;;;;;;;;;5039462;28;20260;-78
2023/12/22 08:33:17;;;;;;;12.80;4.13;;;;;;;;;;5030127;28;20177;-78
2023/12/22 08:35:42;;;;;;;12.90;5.50;;;;;;;;;;5015533;28;20197;-77
2023/12/22 08:38:08;;;;;;;12.27;4.27;;;;;;;;;;5034143;28;20194;-78
2023/12/22 08:40:33;;;;;;;12.63;5.00;;;;;;;;;;5018159;28;20187;-78
2023/12/22 08:43:01;;;;;;;12.43;4.97;;;;;;;;;;5036334;28;20257;-77
2023/12/22 08:45:28;;;;;;;11.67;4.03;;;;;;;;;;5025865;28;20228;-78
2023/12/22 08:47:53;;;;;;;13.70;6.30;;;;;;;;;;5040307;28;20176;-78
2023/12/22 08:50:19;;;;;;;15.70;6.20;;;;;;;;;;5035936;28;20184;-78
2023/12/22 08:52:44;;;;;;;16.57;5.97;;;;;;;;;;5039938;28;20184;-78
2023/12/22 08:55:09;;;;;;;18.30;5.43;;;;;;;;;;5019132;28;20270;-78
2023/12/22 08:57:34;;;;;;;13.80;4.73;;;;;;;;;;5036020;28;20195;-78
2023/12/22 09:00:00;;;;;;;14.97;5.93;;;;;;;;;;5021121;28;20172;-77
2023/12/22 09:02:26;;;;;;;16.37;4.77;;;;;;;;;;5013631;28;20190;-77
2023/12/22 09:04:51;;;;;;;12.40;4.73;;;;;;;;;;5034372;28;20212;-78
2023/12/22 09:07:16;;;;;;;12.10;4.30;;;;;;;;;;5020906;28;20179;-77
2023/12/22 09:09:42;;;;;;;16.80;5.87;;;;;;;;;;5015242;28;20183;-78
2023/12/22 09:12:07;;;;;;;15.33;5.13;;;;;;;;;;5032674;28;20448;-77
2023/12/22 09:14:32;;;;;;;11.83;5.37;;;;;;;;;;5016059;28;20512;-76
2023/12/22 09:16:57;;;;;;;18.53;5.80;;;;;;;;;;5034983;28;20197;-78
2023/12/22 09:19:22;;;;;;;17.83;4.83;;;;;;;;;;5019231;28;20273;-77
2023/12/22 09:21:48;;;;;;;13.47;5.27;;;;;;;;;;5037248;28;20195;-77
2023/12/22 09:24:14;;;;;;;11.83;4.53;;;;;;;;;;5016551;28;20247;-75
2023/12/22 09:26:39;;;;;;;15.77;4.00;;;;;;;;;;5020558;28;20189;-78
2023/12/22 09:29:05;;;;;;;13.10;5.10;;;;;;;;;;5019001;28;20183;-77
2023/12/22 09:31:30;;;;;;;13.03;5.03;;;;;;;;;;5019875;28;20208;-78
2023/12/22 09:33:55;;;;;;;20.97;6.40;;;;;;;;;;5016661;28;20182;-77
2023/12/22 09:36:21;;;;;;;16.37;6.20;;;;;;;;;;5030363;28;20193;-78
2023/12/22 09:38:46;;;;;;;22.83;7.03;;;;;;;;;;5033896;28;20215;-78
2023/12/22 09:41:11;;;;;;;13.57;4.50;;;;;;;;;;5014605;28;20267;-78
2023/12/22 09:43:37;;;;;;;11.83;4.70;;;;;;;;;;5032518;28;20197;-78
2023/12/22 09:46:02;;;;;;;15.30;5.30;;;;;;;;;;5030241;28;20186;-78
2023/12/22 09:48:29;;;;;;;15.70;4.90;;;;;;;;;;5020383;28;20172;-78
2023/12/22 09:50:54;;;;;;;16.73;5.20;;;;;;;;;;5017909;28;20183;-78
2023/12/22 09:53:20;;;;;;;12.97;5.00;;;;;;;;;;5018054;28;20226;-77
2023/12/22 09:55:49;;;;;;;11.00;4.77;;;;;;;;;;5034743;28;20226;-77
2023/12/22 09:58:15;;;;;;;14.13;5.03;;;;;;;;;;5016901;28;20184;-78
2023/12/22 10:00:40;;;;;;;10.03;4.30;;;;;;;;;;5037694;28;20233;-78
2023/12/22 10:03:06;;;;;;;16.23;5.50;;;;;;;;;;5014117;28;20176;-78
2023/12/22 10:05:31;;;;;;;14.07;4.53;;;;;;;;;;5013559;28;20184;-76
2023/12/22 10:07:56;;;;;;;20.57;5.73;;;;;;;;;;5018425;28;20242;-77
2023/12/22 10:10:25;;;;;;;14.77;5.90;;;;;;;;;;5026410;28;20194;-78
2023/12/22 10:12:51;;;;;;;15.90;5.70;;;;;;;;;;5028321;28;20181;-78
2023/12/22 10:15:18;;;;;;;13.00;5.13;;;;;;;;;;5015739;28;20199;-78
2023/12/22 10:17:44;;;;;;;13.37;4.50;;;;;;;;;;5013841;28;20179;-78
2023/12/22 10:20:09;;;;;;;10.13;4.23;;;;;;;;;;5016385;28;20183;-78
2023/12/22 10:22:34;;;;;;;13.37;6.00;;;;;;;;;;5030574;28;20179;-79
2023/12/22 10:24:59;;;;;;;6.27;3.90;;;;;;;;;;5031013;28;20182;-76
2023/12/22 10:27:25;;;;;;;8.20;4.23;;;;;;;;;;5007701;28;20182;-77
2023/12/22 10:29:53;;;;;;;16.97;4.73;;;;;;;;;;5010598;28;20203;-78
2023/12/22 10:32:19;;;;;;;11.77;4.30;;;;;;;;;;5013801;28;20183;-77
2023/12/22 10:34:44;;;;;;;7.53;3.90;;;;;;;;;;5013688;28;20309;-78
2023/12/22 10:37:10;;;;;;;11.57;3.37;;;;;;;;;;5011578;28;20197;-77
2023/12/22 10:39:36;;;;;;;7.90;4.30;;;;;;;;;;5013328;28;20307;-76
2023/12/22 10:42:01;;;;;;;8.03;3.63;;;;;;;;;;5006475;28;20185;-77
2023/12/22 10:44:28;;;;;;;9.20;3.63;;;;;;;;;;5024963;28;20248;-78
2023/12/22 10:46:54;;;;;;;10.47;3.63;;;;;;;;;;5012518;28;20250;-76
2023/12/22 10:49:20;;;;;;;6.73;2.80;;;;;;;;;;5012100;28;20288;-78
2023/12/22 10:51:45;;;;;;;8.43;3.37;;;;;;;;;;5016969;28;20273;-78
2023/12/22 10:54:10;;;;;;;7.57;2.37;;;;;;;;;;5022580;28;20186;-78
2023/12/22 10:56:36;;;;;;;6.67;2.93;;;;;;;;;;5027482;28;20241;-76
2023/12/22 10:59:01;;;;;;;8.77;3.50;;;;;;;;;;5007237;28;20180;-78
2023/12/22 11:01:28;;;;;;;5.17;2.80;;;;;;;;;;5010841;28;20272;-77
2023/12/22 11:03:54;;;;;;;9.80;3.10;;;;;;;;;;5027396;28;20222;-78
2023/12/22 11:06:20;;;;;;;5.97;3.20;;;;;;;;;;5009332;28;20268;-78
2023/12/22 11:08:46;;;;;;;8.17;3.50;;;;;;;;;;5033022;28;20268;-78
2023/12/22 11:11:35;;;;;;;6.13;2.67;;;;;;;;;;5010135;28;20201;-77
2023/12/22 11:14:00;;;;;;;5.27;2.70;;;;;;;;;;5011874;28;20194;-78
2023/12/22 11:16:27;;;;;;;7.70;2.87;;;;;;;;;;5028104;28;20274;-78
2023/12/22 11:18:54;;;;;;;5.37;2.73;;;;;;;;;;5016771;28;20260;-77
2023/12/22 11:21:21;;;;;;;6.33;3.03;;;;;;;;;;5009903;28;20175;-78
2023/12/22 11:23:47;;;;;;;4.00;2.63;;;;;;;;;;5007784;28;20170;-78
2023/12/22 11:26:14;;;;;;;6.37;2.70;;;;;;;;;;5011041;28;20185;-77
2023/12/22 11:28:40;;;;;;;9.17;3.30;;;;;;;;;;5013742;28;20186;-77
2023/12/22 11:31:07;;;;;;;6.43;2.80;;;;;;;;;;5011608;28;20188;-78
2023/12/22 11:33:34;;;;;;;2.97;1.87;;;;;;;;;;5039125;28;20185;-78
2023/12/22 11:36:01;;;;;;;2.43;1.97;;;;;;;;;;5025659;28;20219;-77
2023/12/22 11:38:26;;;;;;;4.57;2.10;;;;;;;;;;5014195;28;20230;-77
2023/12/22 11:40:52;;;;;;;2.20;1.37;;;;;;;;;;5012268;28;20178;-77
2023/12/22 11:43:18;;;;;;;2.70;1.80;;;;;;;;;;5026785;28;20204;-78
2023/12/22 11:45:43;;;;;;;1.23;1.13;;;;;;;;;;5008324;28;20264;-78
2023/12/22 11:48:09;;;;;;;2.57;1.63;;;;;;;;;;5029326;28;20262;-78
2023/12/22 11:50:35;;;;;;;1.40;1.30;;;;;;;;;;5017389;28;20267;-78
2023/12/22 11:53:18;;;;;;;4.50;1.77;;;;;;;;;;5022549;28;20177;-78
2023/12/22 11:55:56;;;;;;;3.77;2.83;;;;;;;;;;5012958;28;20197;-78
2023/12/22 11:58:36;;;;;;;3.17;1.20;;;;;;;;;;5031502;28;20169;-77
2023/12/22 12:01:03;;;;;;;2.80;1.30;;;;;;;;;;5033200;28;20177;-77
2023/12/22 12:03:29;;;;;;;3.03;1.67;;;;;;;;;;5032901;28;20179;-78
2023/12/22 12:06:24;;;;;;;2.70;1.30;;;;;;;;;;5039512;28;20176;-78
2023/12/22 12:08:50;;;;;;;3.30;1.57;;;;;;;;;;4985218;28;20186;-76
2023/12/22 12:11:16;;;;;;;2.30;2.03;;;;;;;;;;5013113;28;20172;-78
2023/12/22 12:13:42;;;;;;;1.67;1.30;;;;;;;;;;5011210;28;20181;-78
2023/12/22 12:16:07;;;;;;;1.50;1.40;;;;;;;;;;5013439;28;20239;-77
2023/12/22 12:18:34;;;;;;;2.00;1.40;;;;;;;;;;5011135;28;20210;-78
2023/12/22 12:21:00;;;;;;;1.77;1.63;;;;;;;;;;5033295;28;20178;-77
2023/12/22 12:23:26;;;;;;;1.57;1.40;;;;;;;;;;5003729;28;20181;-78
2023/12/22 12:25:52;;;;;;;1.57;1.40;;;;;;;;;;5025791;28;20189;-78
2023/12/22 12:28:24;;;;;;;1.33;1.03;;;;;;;;;;5027468;28;20418;-78
2023/12/22 12:30:56;;;;;;;1.33;1.10;;;;;;;;;;5012321;28;20177;-78
2023/12/22 12:33:21;;;;;;;1.53;1.20;;;;;;;;;;5011787;28;20209;-76
2023/12/22 12:35:46;;;;;;;1.10;1.00;;;;;;;;;;5011939;28;20232;-78
2023/12/22 12:38:11;;;;;;;1.90;1.10;;;;;;;;;;5025584;28;20257;-78
2023/12/22 12:40:39;;;;;;;0.90;0.90;;;;;;;;;;5007190;28;20189;-77
2023/12/22 12:43:05;;;;;;;1.23;0.93;;;;;;;;;;5025108;28;20172;-76
2023/12/22 12:45:30;;;;;;;1.03;0.93;;;;;;;;;;5011809;28;20245;-77
2023/12/22 12:47:57;;;;;;;1.30;1.07;;;;;;;;;;5030528;28;20191;-78
2023/12/22 12:50:23;;;;;;;1.07;0.93;;;;;;;;;;5025798;28;20171;-76
2023/12/22 12:52:49;;;;;;;1.03;1.03;;;;;;;;;;5008799;28;20184;-76
2023/12/22 12:55:16;;;;;;;1.30;1.20;;;;;;;;;;5009878;28;20203;-77
2023/12/22 12:57:41;;;;;;;1.30;1.20;;;;;;;;;;5026232;28;20182;-78
2023/12/22 13:00:07;;;;;;;1.43;1.33;;;;;;;;;;5024379;28;20181;-77
2023/12/22 13:02:35;;;;;;;1.40;1.30;;;;;;;;;;5009669;28;20180;-77
2023/12/22 13:05:03;;;;;;;2.00;1.80;;;;;;;;;;5029502;28;20188;-78
2023/12/22 13:07:29;;;;;;;1.23;1.13;;;;;;;;;;5029050;28;20179;-78
2023/12/22 13:09:56;;;;;;;1.40;1.30;;;;;;;;;;5006712;28;20245;-78
2023/12/22 13:12:22;;;;;;;1.40;1.30;;;;;;;;;;5010835;28;20566;-77
2023/12/22 13:14:47;;;;;;;2.17;1.40;;;;;;;;;;5020878;28;20234;-77
2023/12/22 13:17:12;;;;;;;2.60;1.33;;;;;;;;;;5013095;28;20198;-78
2023/12/22 13:19:37;;;;;;;2.30;2.10;;;;;;;;;;5021831;28;20179;-78
2023/12/22 13:22:03;;;;;;;2.07;1.40;;;;;;;;;;5014552;28;20175;-77
2023/12/22 13:24:28;;;;;;;2.53;1.60;;;;;;;;;;5017024;28;20196;-78
2023/12/22 13:27:05;;;;;;;1.60;1.30;;;;;;;;;;5012334;28;20397;-78
2023/12/22 13:29:41;;;;;;;1.80;1.60;;;;;;;;;;5015964;28;20182;-78
2023/12/22 13:32:06;;;;;;;1.50;1.40;;;;;;;;;;5031211;28;20185;-77
2023/12/22 13:34:32;;;;;;;2.40;2.10;;;;;;;;;;5008023;28;20182;-75
2023/12/22 13:36:58;;;;;;;19.97;12.30;;;;;;;;;;5038953;28;20283;-75
2023/12/22 13:39:26;;;;;;;2.07;1.90;;;;;;;;;;5022750;28;20307;-75
2023/12/22 13:41:52;;;;;;;1.43;1.30;;;;;;;;;;5038043;28;20166;-75
2023/12/22 13:44:17;;;;;;;1.30;1.20;;;;;;;;;;5015781;28;20292;-75
2023/12/22 13:46:42;;;;;;;2.23;1.60;;;;;;;;;;5009076;28;20191;-74
2023/12/22 13:49:10;;;;;;;3.33;1.37;;;;;;;;;;5031312;28;20184;-75
2023/12/22 13:51:39;;;;;;;3.80;2.57;;;;;;;;;;5012115;28;20179;-75
2023/12/22 13:54:05;;;;;;;2.30;2.10;;;;;;;;;;5017559;28;20186;-74
2023/12/22 13:56:37;;;;;;;1.87;1.77;;;;;;;;;;5036237;28;20199;-74
2023/12/22 13:59:02;;;;;;;2.40;2.20;;;;;;;;;;5035943;28;20231;-74
2023/12/22 14:01:28;;;;;;;2.47;2.27;;;;;;;;;;5020507;28;20178;-74
2023/12/22 14:03:53;;;;;;;2.10;1.90;;;;;;;;;;5011854;28;20177;-75
2023/12/22 14:06:19;;;;;;;1.27;1.17;;;;;;;;;;5017734;28;20183;-75
2023/12/22 14:08:44;;;;;;;2.63;2.30;;;;;;;;;;5015444;28;20351;-74
2023/12/22 14:11:09;;;;;;;1.67;1.57;;;;;;;;;;5009107;28;20262;-74
2023/12/22 14:13:40;;;;;;;2.53;1.70;;;;;;;;;;5020655;28;20212;-74
2023/12/22 14:16:08;;;;;;;1.50;1.33;;;;;;;;;;5015849;28;20194;-75
2023/12/22 14:18:33;;;;;;;1.63;1.53;;;;;;;;;;5009547;28;20175;-75
2023/12/22 14:20:59;;;;;;;1.30;1.20;;;;;;;;;;5014377;28;20182;-74
2023/12/22 14:23:24;;;;;;;1.50;1.40;;;;;;;;;;5023123;28;20321;-75
2023/12/22 14:25:49;;;;;;;1.77;1.67;;;;;;;;;;5015202;28;20181;-74
2023/12/22 14:28:15;;;;;;;2.20;1.80;;;;;;;;;;5014150;28;20198;-75
2023/12/22 14:30:40;;;;;;;2.13;1.73;;;;;;;;;;5014252;28;20176;-75